»·PEaware :: N572TR KBNG-KVNY

N572TR :: KBNG-KVNY

FLIGHT INFORMATION

Flight Status: Arrived
Operator: Privately registered:
United States
More flights under this callsign
Pilot: Anonymous 8799 (8799)
Aircraft: Unknown
(TBM9)
More flights by this aircraft type
Origin: KBNG Banning Mun
United States
Destination: KVNY Van Nuys
United States
More flights between these airports :: More routes between these airports
Route: +PDZ V197 POM V264 ITSME V186 VNY
File this flight plan on PilotEdge
Remarks:
Altitude:
(Current/Filed)
8,000ft
Speed:
(Current/Filed)
300kts
Departed: 31-Dec-17 01:06 PM
Arrived: 31-Dec-17 01:39 PM
Distance/Time
Traveled:
83nm/0:33
Distance/Time
To Go:
Arrived

Flight Plot

Page will automatically refresh every two minutes.

Flight plan parsing failed; only flown route is shown


Map Options




Map Legend


Flown Route
Filed Route
Departure Airport
Arrival Airport
Navaid (VOR, NDB)
Fix

Horizontal Profiles

Position Reports

Time Latitude Longitude Heading Altitude Ground
Speed
31-Dec-17 12:51 33.921656 -116.857444 1 2190ft 0kts
31-Dec-17 12:52 33.921656 -116.857444 1 2190ft 0kts
31-Dec-17 12:53 33.921771 -116.857497 190 2190ft 0kts
31-Dec-17 12:54 33.922029 -116.857547 98 2190ft 5kts
31-Dec-17 12:55 33.922006 -116.857391 100 2190ft 0kts
31-Dec-17 12:56 33.922020 -116.856924 85 2190ft 9kts
31-Dec-17 12:57 33.922010 -116.852631 84 2190ft 9kts
31-Dec-17 12:58 33.922015 -116.851769 94 2190ft 6kts
31-Dec-17 12:59 33.921977 -116.847581 91 2190ft 6kts
31-Dec-17 13:00 33.921970 -116.843270 90 2190ft 19kts
31-Dec-17 13:01 33.922045 -116.842313 27 2190ft 0kts
31-Dec-17 13:02 33.922045 -116.842313 27 2190ft 0kts
31-Dec-17 13:03 33.922045 -116.842313 27 2190ft 0kts
31-Dec-17 13:04 33.922045 -116.842313 27 2190ft 0kts
31-Dec-17 13:05 33.922045 -116.842313 27 2190ft 0kts
31-Dec-17 13:06 33.922045 -116.842313 27 2190ft 0kts
31-Dec-17 13:07 33.922045 -116.842313 27 2190ft 0kts
31-Dec-17 13:08 33.922045 -116.842313 27 2190ft 0kts
31-Dec-17 13:09 33.922045 -116.842313 27 2190ft 0kts
31-Dec-17 13:10 33.922045 -116.842313 27 2190ft 0kts
31-Dec-17 13:11 33.922085 -116.842293 17 2190ft 2kts
31-Dec-17 13:12 33.922885 -116.869251 271 2719ft 143kts
31-Dec-17 13:13 33.922812 -116.917301 269 4564ft 145kts
31-Dec-17 13:14 33.923687 -116.965112 269 6350ft 141kts
31-Dec-17 13:15 33.931943 -117.015145 281 8056ft 177kts
31-Dec-17 13:16 33.945571 -117.086258 284 7992ft 240kts
31-Dec-17 13:17 33.961023 -117.165698 284 7982ft 248kts
31-Dec-17 13:18 33.976751 -117.246997 284 7981ft 248kts
31-Dec-17 13:19 33.992049 -117.326561 284 7978ft 241kts
31-Dec-17 13:20 34.006994 -117.404807 283 7981ft 239kts
31-Dec-17 13:21 34.021765 -117.482543 283 7982ft 239kts
31-Dec-17 13:22 34.036562 -117.560748 283 7982ft 239kts
31-Dec-17 13:23 34.051235 -117.638665 284 7983ft 239kts
31-Dec-17 13:24 34.065605 -117.715314 283 7988ft 239kts
31-Dec-17 13:25 34.080207 -117.794150 283 7994ft 241kts
31-Dec-17 13:26 34.081784 -117.874768 269 7991ft 242kts
31-Dec-17 13:27 34.092554 -117.953643 287 7993ft 241kts
31-Dec-17 13:28 34.113435 -118.027977 314 7967ft 239kts
31-Dec-17 13:29 34.166130 -118.074336 321 7996ft 237kts
31-Dec-17 13:30 34.217937 -118.123672 322 8035ft 237kts
31-Dec-17 13:31 34.269590 -118.173200 322 8035ft 237kts
31-Dec-17 13:32 34.321419 -118.222651 322 8040ft 237kts
31-Dec-17 13:33 34.373898 -118.270844 322 8052ft 238kts
31-Dec-17 13:34 34.427048 -118.318858 322 8060ft 239kts
31-Dec-17 13:35 34.479857 -118.367706 305 8043ft 239kts
31-Dec-17 13:36 34.478828 -118.442842 261 6729ft 214kts
31-Dec-17 13:37 34.471003 -118.503842 245 6007ft 146kts
31-Dec-17 13:38 34.433564 -118.513775 177 5090ft 162kts
31-Dec-17 13:39 34.389601 -118.509634 177 4815ft 177kts
31-Dec-17 13:40 34.347513 -118.505550 177 3922ft 118kts
31-Dec-17 13:41 34.317179 -118.502542 177 3162ft 117kts
31-Dec-17 13:42 34.283044 -118.499212 174 2387ft 117kts
31-Dec-17 13:43 34.251441 -118.495829 174 1672ft 121kts
31-Dec-17 13:44 34.224114 -118.491661 175 964ft 94kts
31-Dec-17 13:45 34.208455 -118.490856 206 776ft 10kts
31-Dec-17 13:46 34.207920 -118.491183 205 776ft 6kts
31-Dec-17 13:47 34.205381 -118.491525 89 776ft 0kts

Navigation Log

Ident Type
Flight plan parsing failed, navigation log unavailable